createdAt,value
2022-11-10T07:07:26.771Z,101228.09
2022-11-10T07:10:22.856Z,101236.81
2022-11-10T07:13:18.406Z,101236.69
2022-11-10T07:16:14.759Z,101233.94
2022-11-10T07:19:10.215Z,101245.13
2022-11-10T07:22:10.616Z,101241.50
2022-11-10T07:25:10.377Z,101234.25
2022-11-10T07:28:08.356Z,101234.06
2022-11-10T07:31:07.046Z,101243.19
2022-11-10T07:34:02.673Z,101238.50
2022-11-10T07:36:58.035Z,101260.22
2022-11-10T07:39:54.092Z,101258.31
2022-11-10T07:42:52.054Z,101259.78
2022-11-10T07:45:47.544Z,101268.09
2022-11-10T07:48:42.704Z,101273.50
2022-11-10T07:51:38.157Z,101277.44
2022-11-10T07:54:33.172Z,101277.75
2022-11-10T07:57:28.571Z,101285.22
2022-11-10T08:00:26.833Z,101285.09
2022-11-10T08:03:24.984Z,101289.63
2022-11-10T08:06:20.338Z,101289.75
2022-11-10T08:09:15.975Z,101298.00
2022-11-10T08:12:11.508Z,101308.25
2022-11-10T08:15:08.020Z,101289.69
2022-11-10T08:18:08.795Z,101310.03
2022-11-10T08:21:05.239Z,101315.44
2022-11-10T08:24:00.772Z,101311.09
2022-11-10T08:26:56.390Z,101318.84
2022-11-10T08:29:51.530Z,101306.03
2022-11-10T08:32:47.109Z,101324.75
2022-11-10T08:35:47.293Z,101328.34
2022-11-10T08:38:42.769Z,101333.47
2022-11-10T08:41:37.940Z,101340.50
2022-11-10T08:44:33.671Z,101337.84
2022-11-10T08:47:29.121Z,101344.84
2022-11-10T08:50:24.898Z,101344.84
2022-11-10T08:53:26.015Z,101351.16
2022-11-10T08:56:21.890Z,101351.03
2022-11-10T08:59:17.143Z,101361.34
2022-11-10T09:02:13.888Z,101355.69
2022-11-10T09:05:10.797Z,101360.28
2022-11-10T09:08:07.520Z,101361.34
2022-11-10T09:11:06.454Z,101367.72
2022-11-10T09:14:02.167Z,101369.19
2022-11-10T09:16:57.871Z,101372.56
2022-11-10T09:19:53.873Z,101376.38
2022-11-10T09:22:48.926Z,101380.44
2022-11-10T09:25:45.325Z,101378.88
2022-11-10T09:28:43.336Z,101395.00
2022-11-10T09:31:39.236Z,101393.31
2022-11-10T09:34:34.721Z,101403.47
2022-11-10T09:37:31.081Z,101397.66
2022-11-10T09:40:31.679Z,101400.31
2022-11-10T09:43:36.410Z,101404.69
2022-11-10T09:46:37.970Z,101401.19
2022-11-10T09:49:39.964Z,101415.16
2022-11-10T09:52:39.767Z,101406.06
2022-11-10T09:55:45.636Z,101416.03
2022-11-10T09:58:44.889Z,101420.50
2022-11-10T10:01:51.620Z,101429.09
2022-11-10T10:05:33.199Z,101441.88
2022-11-10T10:08:44.331Z,101454.00
2022-11-10T10:11:57.150Z,101460.44
2022-11-10T10:15:15.882Z,101469.63
2022-11-10T10:18:28.810Z,101460.91
2022-11-10T10:21:43.120Z,101473.41
2022-11-10T10:24:38.504Z,101466.09
2022-11-10T10:27:35.181Z,101471.38
2022-11-10T10:30:30.518Z,101455.59
2022-11-10T10:33:28.611Z,101461.56
2022-11-10T10:36:28.061Z,101455.53
2022-11-10T10:39:31.536Z,101460.59
2022-11-10T10:42:35.391Z,101474.97
2022-11-10T10:45:33.030Z,101466.47
2022-11-10T10:48:33.601Z,101466.84
2022-11-10T10:51:34.162Z,101459.78
2022-11-10T10:54:34.840Z,101475.78
2022-11-10T10:57:32.512Z,101470.78
2022-11-10T11:00:29.692Z,101482.88
2022-11-10T11:03:41.430Z,101480.19
2022-11-10T11:06:38.345Z,101485.97
2022-11-10T11:09:43.214Z,101495.16
2022-11-10T11:12:38.856Z,101509.97
2022-11-10T11:15:34.571Z,101502.69
2022-11-10T11:18:35.251Z,101499.75
2022-11-10T11:21:37.511Z,101508.94
2022-11-10T11:24:43.011Z,101509.66
2022-11-10T11:27:50.331Z,101514.09
2022-11-10T11:31:02.682Z,101503.00
2022-11-10T11:34:07.400Z,101519.25
2022-11-10T11:37:15.360Z,101515.16
2022-11-10T11:40:38.323Z,101524.31
2022-11-10T11:44:15.297Z,101528.97
2022-11-10T11:47:28.421Z,101540.94
2022-11-10T11:50:35.550Z,101544.59
2022-11-10T11:53:49.770Z,101543.00
2022-11-10T11:56:48.879Z,101544.41
2022-11-10T12:00:08.799Z,101554.72
2022-11-10T12:03:56.193Z,101560.09
2022-11-10T12:07:09.891Z,101556.25
2022-11-10T12:10:21.201Z,101552.66
2022-11-10T12:13:40.771Z,101557.38
2022-11-10T12:16:38.760Z,101552.31
2022-11-10T12:19:44.188Z,101572.94
2022-11-10T12:22:54.069Z,101573.59
2022-11-10T12:26:02.744Z,101574.53
2022-11-10T12:29:07.885Z,101573.44
2022-11-10T12:32:13.427Z,101579.19
2022-11-10T12:35:17.408Z,101588.44
2022-11-10T12:38:22.959Z,101587.47
2022-11-10T12:41:22.205Z,101592.94
2022-11-10T12:44:27.777Z,101591.44
2022-11-10T12:47:26.145Z,101599.44
2022-11-10T12:50:44.525Z,101607.44
2022-11-10T12:53:46.177Z,101601.63
2022-11-10T12:56:47.765Z,101616.19
2022-11-10T12:59:44.957Z,101629.03
2022-11-10T13:02:45.555Z,101635.94
2022-11-10T13:05:42.859Z,101630.22
2022-11-10T13:08:50.131Z,101647.16
2022-11-10T13:11:45.873Z,101638.28
2022-11-10T13:14:42.803Z,101634.03
2022-11-10T13:17:57.822Z,101643.44
2022-11-10T13:20:56.754Z,101651.50
2022-11-10T13:24:26.938Z,101654.28
2022-11-10T13:27:55.972Z,101664.75
2022-11-10T13:30:53.053Z,101659.00
2022-11-10T13:34:08.859Z,101659.47
2022-11-10T13:37:05.101Z,101659.47
2022-11-10T13:40:40.044Z,101669.09
2022-11-10T13:43:35.311Z,101676.97
2022-11-10T13:46:39.771Z,101682.63
2022-11-10T13:49:53.023Z,101690.03
2022-11-10T13:53:02.793Z,101710.94
2022-11-10T13:56:20.794Z,101705.38
2022-11-10T13:59:22.224Z,101706.38
2022-11-10T14:02:51.775Z,101714.25
2022-11-10T14:06:09.624Z,101720.13
2022-11-10T14:09:15.096Z,101725.06
2022-11-10T14:12:26.762Z,101729.72
2022-11-10T14:15:26.568Z,101724.41
2022-11-10T14:18:26.073Z,101731.03
2022-11-10T14:21:32.679Z,101732.84
2022-11-10T14:24:34.095Z,101747.53
2022-11-10T14:27:35.479Z,101743.78
2022-11-10T14:30:33.900Z,101742.53
2022-11-10T14:33:30.903Z,101757.44
2022-11-10T14:36:27.203Z,101760.72
2022-11-10T14:39:29.755Z,101760.38
2022-11-10T14:42:28.933Z,101774.44
2022-11-10T14:45:29.260Z,101780.00
2022-11-10T14:48:29.732Z,101785.53
2022-11-10T14:51:25.503Z,101803.63
2022-11-10T14:54:29.248Z,101816.19
2022-11-10T14:57:24.970Z,101822.97
2022-11-10T15:00:31.259Z,101836.59
2022-11-10T15:03:39.328Z,101837.84
2022-11-10T15:06:35.735Z,101837.50
2022-11-10T15:09:37.013Z,101842.16
2022-11-10T15:12:41.803Z,101843.31
2022-11-10T15:15:42.758Z,101861.28
2022-11-10T15:18:40.511Z,101859.88
2022-11-10T15:21:43.015Z,101866.34
2022-11-10T15:24:40.274Z,101880.25
2022-11-10T15:27:39.640Z,101881.41
2022-11-10T15:30:39.642Z,101887.84
2022-11-10T15:33:45.634Z,101896.59
2022-11-10T15:36:42.661Z,101886.31
2022-11-10T15:39:38.019Z,101899.81
2022-11-10T15:42:34.064Z,101905.38
2022-11-10T15:45:31.038Z,101910.72
2022-11-10T15:48:41.752Z,101920.72
2022-11-10T15:51:37.301Z,101922.59
2022-11-10T15:54:39.551Z,101924.47
2022-11-10T15:57:36.679Z,101921.28
2022-11-10T16:00:32.842Z,101926.78
2022-11-10T16:03:31.608Z,101928.69
2022-11-10T16:06:27.940Z,101916.31
2022-11-10T16:09:23.235Z,101923.53
2022-11-10T16:12:24.185Z,101925.44
2022-11-10T16:15:24.586Z,101928.84
2022-11-10T16:18:24.227Z,101925.63
2022-11-10T16:21:25.293Z,101923.53
2022-11-10T16:24:21.543Z,101922.78
2022-11-10T16:27:20.080Z,101927.34
2022-11-10T16:30:20.226Z,101922.84
2022-11-10T16:33:19.279Z,101929.13
2022-11-10T16:36:26.785Z,101939.00
2022-11-10T16:39:22.649Z,101944.50
2022-11-10T16:42:21.493Z,101951.81
2022-11-10T16:45:23.646Z,101945.53
2022-11-10T16:48:28.878Z,101942.19
2022-11-10T16:51:40.929Z,101951.03
2022-11-10T16:54:44.124Z,101955.69
2022-11-10T16:57:43.414Z,101961.03
2022-11-10T17:00:45.217Z,101962.41
2022-11-10T17:03:52.415Z,101963.38
2022-11-10T17:06:59.391Z,101980.25
2022-11-10T17:09:58.958Z,101982.50
2022-11-10T17:12:57.102Z,101993.13
2022-11-10T17:16:00.192Z,101983.78
2022-11-10T17:18:59.732Z,101990.06
2022-11-10T17:21:58.673Z,101986.63
2022-11-10T17:24:59.333Z,101985.09
2022-11-10T17:27:57.203Z,101986.06
2022-11-10T17:30:56.874Z,101988.00
2022-11-10T17:33:53.284Z,101986.56
2022-11-10T17:36:58.073Z,101996.16
2022-11-10T17:39:55.682Z,102011.16
2022-11-10T17:42:54.033Z,102003.97
2022-11-10T17:45:52.246Z,102004.31
2022-11-10T17:48:50.548Z,102018.53
2022-11-10T17:51:49.254Z,102024.88
2022-11-10T17:54:52.792Z,102041.84
2022-11-10T17:57:49.553Z,102052.81
2022-11-10T18:00:47.266Z,102052.03
2022-11-10T18:03:47.643Z,102057.25
2022-11-10T18:06:44.914Z,102031.66
2022-11-10T18:09:45.780Z,102040.44
2022-11-10T18:12:49.592Z,102020.00
2022-11-10T18:15:47.355Z,102032.31
2022-11-10T18:18:45.423Z,102026.41
2022-11-10T18:21:43.284Z,102027.44
2022-11-10T18:24:41.297Z,102039.69
2022-11-10T18:27:40.655Z,102051.34
2022-11-10T18:30:43.333Z,102040.81
2022-11-10T18:33:40.035Z,102041.13
2022-11-10T18:36:37.441Z,102042.94
2022-11-10T18:39:34.001Z,102039.75
2022-11-10T18:42:38.885Z,102030.84
2022-11-10T18:45:34.937Z,102021.09
2022-11-10T18:48:37.241Z,102015.78
2022-11-10T18:51:39.501Z,102025.53
2022-11-10T18:54:36.528Z,102020.38
2022-11-10T18:57:32.566Z,102029.47
2022-11-10T19:00:29.437Z,102033.06
2022-11-10T19:03:28.574Z,102024.31
2022-11-10T19:06:28.109Z,102026.06
2022-11-10T19:09:23.928Z,102029.63
2022-11-10T19:12:26.301Z,102029.78
2022-11-10T19:15:22.705Z,102026.38
2022-11-10T19:18:20.177Z,102026.38
2022-11-10T19:21:18.738Z,102030.81
2022-11-10T19:24:27.693Z,102035.34
2022-11-10T19:27:25.357Z,102029.22
2022-11-10T19:30:22.128Z,102035.44
2022-11-10T19:33:18.266Z,102022.25
2022-11-10T19:36:30.831Z,102024.81
2022-11-10T19:39:31.338Z,102038.19
2022-11-10T19:42:27.733Z,102042.63
2022-11-10T19:45:25.144Z,102055.03
2022-11-10T19:48:21.554Z,102051.28
2022-11-10T19:51:19.816Z,102047.59
2022-11-10T19:54:17.023Z,102040.41
2022-11-10T19:57:16.025Z,102047.44
2022-11-10T20:00:17.164Z,102062.34
2022-11-10T20:03:13.437Z,102070.22
2022-11-10T20:06:14.013Z,102066.78
2022-11-10T20:09:10.480Z,102067.56
2022-11-10T20:12:07.614Z,102073.69
2022-11-10T20:15:11.493Z,102073.34
2022-11-10T20:18:08.744Z,102075.22
2022-11-10T20:21:07.323Z,102082.06
2022-11-10T20:24:04.104Z,102078.47
2022-11-10T20:27:01.039Z,102080.13
2022-11-10T20:30:06.863Z,102078.28
2022-11-10T20:33:09.758Z,102070.13
2022-11-10T20:36:18.988Z,102069.25
2022-11-10T20:39:16.048Z,102067.34
2022-11-10T20:42:13.937Z,102052.44
2022-11-10T20:45:12.236Z,102063.06
2022-11-10T20:48:11.554Z,102057.66
2022-11-10T20:51:18.284Z,102051.44
2022-11-10T20:54:19.195Z,102053.31
2022-11-10T20:57:17.796Z,102047.84
2022-11-10T21:00:16.564Z,102053.16
2022-11-10T21:03:17.793Z,102060.16
2022-11-10T21:06:16.148Z,102054.94
2022-11-10T21:09:16.734Z,102060.31
2022-11-10T21:12:28.885Z,102065.63
2022-11-10T21:15:26.814Z,102070.94
